Create Tblcommutelog Verified Points Advance Search
| # | Trip ID | Id Commuter | Trip Date | Trip Num | Current Lat | Current Lng | Delta Distance | Current Time | Activity | Activity Confidence | Current Speed | |
|---|---|---|---|---|---|---|---|---|---|---|---|---|
| 70821 | 251103_789037_16657801_1600 | 789037 | (not set) | (not set) | 38.988299716388 | -76.70605607744 | 12.4285 | 2025-11-03 16:20:16 | in_vehicle | 100 | 9.1553640240686 | |
| 70822 | 251103_786985_16656503_1619 | 786985 | (not set) | (not set) | 39.2897969 | -76.61284 | 0 | 2025-11-03 16:20:16 | walking | 100 | -0.44703925898772 | |
| 70823 | 251103_786985_16656503_1619 | 786985 | (not set) | (not set) | 39.2897969 | -76.61284 | 0 | 2025-11-03 16:20:16 | walking | 100 | -0.44703925898772 | |
| 70824 | 251103_785264_16653381_1552 | 785264 | (not set) | (not set) | 38.907620635263 | -77.18719567106 | 9.1405 | 2025-11-03 16:20:17 | in_vehicle | 100 | 10.822820460093 | |
| 70825 | 251103_780815_16648493_1606 | 780815 | (not set) | (not set) | 38.928374739622 | -77.110269236869 | 4.5015 | 2025-11-03 16:20:17 | in_vehicle | 100 | 4.331810419591 | |
| 70826 | 251103_780815_16648493_1606 | 780815 | (not set) | (not set) | 38.928374739622 | -77.110269236869 | 4.5015 | 2025-11-03 16:20:17 | in_vehicle | 100 | 4.331810419591 | |
| 70827 | 251103_783924_16651731_1538 | 783924 | (not set) | (not set) | 38.669330405953 | -77.261111361115 | 23.0228 | 2025-11-03 16:20:18 | in_vehicle | 100 | 14.278433932068 | |
| 70828 | 251103_783924_16651731_1538 | 783924 | (not set) | (not set) | 38.669330405953 | -77.261111361115 | 23.0228 | 2025-11-03 16:20:18 | in_vehicle | 100 | 14.278433932068 | |
| 70829 | 251103_783490_16651223_1600 | 783490 | (not set) | (not set) | 38.904487615353 | -77.216917002292 | 3.5103 | 2025-11-03 16:20:18 | in_vehicle | 100 | 12.955197725464 | |
| 70830 | 251103_786113_16654392_1553 | 786113 | (not set) | (not set) | 38.875796006217 | -77.280591669419 | 26.3247 | 2025-11-03 16:20:19 | in_vehicle | 100 | 11.573846415192 | |
| 70831 | 251103_739141_16658092_1616 | 739141 | (not set) | (not set) | 38.89607207992 | -77.04347690724 | 0.2686 | 2025-11-03 16:20:19 | unknown | 100 | 4.7162641823205 | |
| 70832 | 251103_784108_16652594_1610 | 784108 | (not set) | (not set) | 39.042092994226 | -77.147695087733 | 4.5785 | 2025-11-03 16:20:19 | in_vehicle | 100 | 10.134380001252 | |
| 70833 | 251103_785674_16653838_1607 | 785674 | (not set) | (not set) | 39.0845305 | -77.172889666667 | 7.5625 | 2025-11-03 16:20:19 | in_vehicle | 100 | 14.099618228473 | |
| 70834 | 251103_787783_16656297_1615 | 787783 | (not set) | (not set) | 38.89588736573 | -77.043459176157 | 0.2648 | 2025-11-03 16:20:20 | in_vehicle | 100 | 4.5642708342647 | |
| 70835 | 251103_787783_16656297_1615 | 787783 | (not set) | (not set) | 38.89588736573 | -77.043459176157 | 0.2648 | 2025-11-03 16:20:20 | in_vehicle | 100 | 4.5642708342647 | |
| 70836 | 251103_787783_16656297_1615 | 787783 | (not set) | (not set) | 38.89588736573 | -77.043459176157 | 0.2648 | 2025-11-03 16:20:20 | in_vehicle | 100 | 4.5642708342647 | |
| 70837 | 251103_788191_16656760_1610 | 788191 | (not set) | (not set) | 38.995601856017 | -76.937684975076 | 0.5143 | 2025-11-03 16:20:21 | unknown | 100 | 5.3421191449033 | |
| 70838 | 251103_788191_16656760_1610 | 788191 | (not set) | (not set) | 38.995601856017 | -76.937684975076 | 0.5143 | 2025-11-03 16:20:21 | unknown | 100 | 5.3421191449033 | |
| 70839 | 251103_781336_16649009_1534 | 781336 | (not set) | (not set) | 38.925300333685 | -77.237998126147 | 16.0387 | 2025-11-03 16:20:21 | in_vehicle | 100 | 10.711060645346 | |
| 70840 | 251103_781336_16649009_1534 | 781336 | (not set) | (not set) | 38.925300333685 | -77.237998126147 | 16.0387 | 2025-11-03 16:20:21 | in_vehicle | 100 | 10.711060645346 |